Time;durP1;ratioP1;P1;durP2;ratioP2;P2;SDS_P1;SDS_P2;PMS_P1;PMS_P2;Temp;Humidity;BMP_temperature;BMP_pressure;BME280_temperature;BME280_humidity;BME280_pressure;Samples;Min_cycle;Max_cycle;Signal;HPM_P1;HPM_P2
2021/09/11 00:00:17;;;;;;;11.13;6.60;;;23.10;58.20;;;;;;6245066;28;20049;-82
2021/09/11 00:03:18;;;;;;;10.10;5.90;;;23.00;57.80;;;;;;6248152;28;20033;-81
2021/09/11 00:06:19;;;;;;;11.63;7.45;;;23.00;57.80;;;;;;6229417;28;20454;-81
2021/09/11 00:09:20;;;;;;;10.57;5.90;;;22.90;57.70;;;;;;6228804;28;20121;-81
2021/09/11 00:12:21;;;;;;;10.73;6.55;;;22.90;57.60;;;;;;6246811;28;20030;-81
2021/09/11 00:15:22;;;;;;;9.55;6.20;;;22.90;57.60;;;;;;6231289;28;20406;-82
2021/09/11 00:18:23;;;;;;;11.30;5.78;;;22.80;57.60;;;;;;6247366;28;20029;-81
2021/09/11 00:21:26;;;;;;;10.70;6.38;;;22.80;57.70;;;;;;6238358;28;20040;-82
2021/09/11 00:24:27;;;;;;;9.45;6.47;;;22.70;57.70;;;;;;6222520;28;20370;-81
2021/09/11 00:27:28;;;;;;;9.48;6.03;;;22.70;57.80;;;;;;6246508;28;20060;-81
2021/09/11 00:30:29;;;;;;;12.07;6.75;;;22.70;57.70;;;;;;6247073;28;20045;-82
2021/09/11 00:33:30;;;;;;;10.25;6.07;;;22.70;57.70;;;;;;6246317;28;20355;-82
2021/09/11 00:36:31;;;;;;;9.20;6.32;;;22.70;57.70;;;;;;6236985;28;20057;-82
2021/09/11 00:39:32;;;;;;;10.10;6.28;;;22.70;57.70;;;;;;6229567;28;20037;-81
2021/09/11 00:42:33;;;;;;;10.93;6.60;;;22.60;57.70;;;;;;6245365;28;20122;-81
2021/09/11 00:45:34;;;;;;;9.32;6.88;;;22.60;57.80;;;;;;6248616;28;20047;-82
2021/09/11 00:48:35;;;;;;;9.98;6.40;;;22.60;57.80;;;;;;6261240;28;20037;-81
2021/09/11 00:51:37;;;;;;;9.85;6.22;;;22.60;57.80;;;;;;6268292;28;20057;-83
2021/09/11 00:54:39;;;;;;;9.85;5.80;;;22.60;57.90;;;;;;6238180;28;20057;-82
2021/09/11 00:57:45;;;;;;;10.88;6.70;;;22.60;57.90;;;;;;6251227;28;20033;-82
2021/09/11 01:00:46;;;;;;;10.65;6.13;;;22.60;57.90;;;;;;6249534;28;20101;-82
2021/09/11 01:03:47;;;;;;;12.70;6.45;;;22.50;58.00;;;;;;6240650;28;20474;-82
2021/09/11 01:06:48;;;;;;;12.30;6.60;;;22.50;58.10;;;;;;6249423;28;20041;-81
2021/09/11 01:10:10;;;;;;;10.90;6.72;;;22.50;58.10;;;;;;6240030;28;20034;-82
2021/09/11 01:13:37;;;;;;;8.23;6.22;;;22.40;58.10;;;;;;6228260;28;20196;-82
2021/09/11 01:17:02;;;;;;;15.55;7.47;;;22.40;58.20;;;;;;6226502;28;20067;-81
2021/09/11 01:20:03;;;;;;;9.10;6.22;;;22.40;58.30;;;;;;6250402;28;20041;-82
2021/09/11 01:23:05;;;;;;;10.70;6.13;;;22.30;58.20;;;;;;6229129;28;20109;-81
2021/09/11 01:26:07;;;;;;;10.07;6.28;;;22.30;58.20;;;;;;6245365;28;20037;-81
2021/09/11 01:29:11;;;;;;;12.85;6.60;;;22.30;58.40;;;;;;6245089;28;20413;-82
2021/09/11 01:32:14;;;;;;;11.88;7.10;;;22.20;58.40;;;;;;6227761;28;20049;-81
2021/09/11 01:35:16;;;;;;;14.07;7.55;;;22.20;58.50;;;;;;6237251;28;20040;-82
2021/09/11 01:38:18;;;;;;;13.93;6.97;;;22.20;58.60;;;;;;6197375;28;20061;-81
2021/09/11 01:41:19;;;;;;;9.95;5.93;;;22.10;58.60;;;;;;6245495;28;20049;-81
2021/09/11 01:44:19;;;;;;;10.65;6.75;;;22.10;58.70;;;;;;6244419;28;20128;-81
2021/09/11 01:47:21;;;;;;;9.95;6.45;;;22.10;58.70;;;;;;6245114;28;20045;-82
2021/09/11 01:50:22;;;;;;;11.73;7.28;;;22.10;58.80;;;;;;6244166;28;20049;-80
2021/09/11 01:53:23;;;;;;;9.70;6.18;;;22.10;58.70;;;;;;6243590;28;20120;-82
2021/09/11 01:56:24;;;;;;;10.85;6.20;;;22.10;58.70;;;;;;6244832;28;20033;-81
2021/09/11 01:59:25;;;;;;;8.43;5.78;;;22.10;58.60;;;;;;6245110;28;20037;-82
2021/09/11 02:02:26;;;;;;;9.88;6.15;;;22.10;58.50;;;;;;6228162;28;20128;-82
2021/09/11 02:05:27;;;;;;;8.50;6.10;;;22.00;58.50;;;;;;6246672;28;20382;-81
2021/09/11 02:08:28;;;;;;;10.15;6.10;;;22.00;58.50;;;;;;6232276;28;20053;-81
2021/09/11 02:11:30;;;;;;;11.13;5.70;;;22.00;58.60;;;;;;6232360;28;20052;-82
2021/09/11 02:14:31;;;;;;;11.18;5.78;;;21.90;58.50;;;;;;6250005;28;20037;-81
2021/09/11 02:17:32;;;;;;;9.80;5.70;;;21.90;58.40;;;;;;6249461;28;20053;-81
2021/09/11 02:20:32;;;;;;;16.45;6.00;;;21.90;58.40;;;;;;6255347;28;20481;-81
2021/09/11 02:23:33;;;;;;;9.52;5.78;;;21.90;58.30;;;;;;6235522;28;20038;-81
2021/09/11 02:26:35;;;;;;;9.95;5.60;;;21.90;58.20;;;;;;6233973;28;20061;-81
2021/09/11 02:29:36;;;;;;;9.40;6.30;;;21.80;58.20;;;;;;6232553;28;20078;-81
2021/09/11 02:32:37;;;;;;;9.88;5.72;;;21.80;58.20;;;;;;6231811;28;20584;-81
2021/09/11 02:35:38;;;;;;;8.38;5.55;;;21.70;58.20;;;;;;6248677;28;20022;-81
2021/09/11 02:38:39;;;;;;;12.30;5.80;;;21.70;58.30;;;;;;6247563;28;20370;-82
2021/09/11 02:41:40;;;;;;;7.68;5.43;;;21.60;58.40;;;;;;6248760;28;20352;-82
2021/09/11 02:44:40;;;;;;;9.68;5.63;;;21.60;58.40;;;;;;6248452;28;20037;-81
2021/09/11 02:47:41;;;;;;;7.57;5.75;;;21.60;58.50;;;;;;6248357;28;20348;-82
2021/09/11 02:50:43;;;;;;;10.52;6.03;;;21.50;58.50;;;;;;6227347;28;20054;-81
2021/09/11 02:53:44;;;;;;;9.05;6.00;;;21.50;58.60;;;;;;6237987;28;20067;-81
2021/09/11 02:56:45;;;;;;;9.32;5.63;;;21.50;58.70;;;;;;6242617;28;20053;-82
2021/09/11 02:59:46;;;;;;;11.98;6.13;;;21.50;58.80;;;;;;6232158;28;20038;-81
2021/09/11 03:02:47;;;;;;;11.27;5.82;;;21.50;58.90;;;;;;6250019;28;20052;-81
2021/09/11 03:05:47;;;;;;;8.65;6.00;;;21.50;58.90;;;;;;6248319;28;20049;-81
2021/09/11 03:08:48;;;;;;;10.82;6.63;;;21.50;59.00;;;;;;6247538;28;20094;-81
2021/09/11 03:11:49;;;;;;;10.43;6.20;;;21.50;59.30;;;;;;6231366;28;20075;-81
2021/09/11 03:14:50;;;;;;;9.68;6.00;;;21.50;59.40;;;;;;6215092;28;20105;-81
2021/09/11 03:17:51;;;;;;;9.98;6.28;;;21.50;59.60;;;;;;6241024;28;20053;-81
2021/09/11 03:20:52;;;;;;;11.57;6.43;;;21.50;60.50;;;;;;6244311;28;20111;-81
2021/09/11 03:23:53;;;;;;;10.02;6.57;;;21.50;60.00;;;;;;6229235;28;20400;-81
2021/09/11 03:26:54;;;;;;;10.07;6.30;;;21.50;60.10;;;;;;6246837;28;20033;-81
2021/09/11 03:29:55;;;;;;;12.38;6.05;;;21.50;60.30;;;;;;6247503;28;20512;-81
2021/09/11 03:32:56;;;;;;;11.95;6.60;;;21.50;60.40;;;;;;6239133;28;20477;-81
2021/09/11 03:35:57;;;;;;;9.50;6.20;;;21.50;60.30;;;;;;6238625;28;20034;-82
2021/09/11 03:38:58;;;;;;;11.10;6.05;;;21.50;60.30;;;;;;6246572;28;20029;-81
2021/09/11 03:41:58;;;;;;;9.55;5.43;;;21.40;59.90;;;;;;6247102;28;20044;-81
2021/09/11 03:44:59;;;;;;;7.88;5.40;;;21.40;59.70;;;;;;6246689;28;20033;-81
2021/09/11 03:48:00;;;;;;;10.82;6.00;;;21.40;59.30;;;;;;6242475;28;20434;-81
2021/09/11 03:51:03;;;;;;;10.75;5.75;;;21.30;59.30;;;;;;6240890;28;20042;-80
2021/09/11 03:54:04;;;;;;;9.38;5.70;;;21.30;59.30;;;;;;6215058;28;20102;-81
2021/09/11 03:57:05;;;;;;;8.65;5.90;;;21.20;59.30;;;;;;6205211;28;20041;-81
2021/09/11 04:00:07;;;;;;;8.38;5.90;;;21.20;59.30;;;;;;6251090;28;20041;-81
2021/09/11 04:03:11;;;;;;;7.78;5.20;;;21.20;59.30;;;;;;6241053;28;20037;-81
2021/09/11 04:06:12;;;;;;;19.70;6.65;;;21.20;59.20;;;;;;6231537;28;20067;-81
2021/09/11 04:09:14;;;;;;;12.13;6.13;;;21.20;59.20;;;;;;6222655;28;20041;-81
2021/09/11 04:12:15;;;;;;;8.85;5.57;;;21.20;59.50;;;;;;6247545;28;20053;-81
2021/09/11 04:15:16;;;;;;;10.80;6.22;;;21.10;59.30;;;;;;6232640;28;20513;-80
2021/09/11 04:18:19;;;;;;;9.80;6.60;;;21.10;59.30;;;;;;6252250;28;20359;-80
2021/09/11 04:21:19;;;;;;;10.60;6.50;;;21.10;59.30;;;;;;6248518;28;20121;-81
2021/09/11 04:24:20;;;;;;;9.40;6.05;;;21.10;59.30;;;;;;6247670;28;20485;-82
2021/09/11 04:27:21;;;;;;;10.40;6.28;;;21.10;59.30;;;;;;6247074;28;20033;-80
2021/09/11 04:30:22;;;;;;;9.40;5.80;;;21.10;59.30;;;;;;6246973;28;20041;-83
2021/09/11 04:33:23;;;;;;;9.35;5.72;;;21.00;59.30;;;;;;6224823;28;20180;-81
2021/09/11 04:36:24;;;;;;;11.18;6.85;;;21.00;59.50;;;;;;6248102;28;20524;-81
2021/09/11 04:39:25;;;;;;;14.55;7.93;;;21.00;59.60;;;;;;6239821;28;20467;-81
2021/09/11 04:42:25;;;;;;;11.95;7.03;;;20.10;59.30;;;;;;6209633;28;20056;-81
2021/09/11 04:45:26;;;;;;;11.00;6.95;;;20.90;59.80;;;;;;6245846;28;20348;-81
2021/09/11 04:48:27;;;;;;;9.73;6.13;;;20.90;59.80;;;;;;6248092;28;20151;-81
2021/09/11 04:51:28;;;;;;;9.73;6.30;;;20.90;59.80;;;;;;6246602;28;20045;-81
2021/09/11 04:54:29;;;;;;;10.75;6.22;;;20.90;59.90;;;;;;6229560;28;20041;-81
2021/09/11 04:57:30;;;;;;;12.60;7.32;;;20.90;60.00;;;;;;6247430;28;20037;-81
2021/09/11 05:00:32;;;;;;;10.77;6.45;;;20.80;60.10;;;;;;6246370;28;20034;-81
2021/09/11 05:03:34;;;;;;;13.63;6.43;;;20.90;60.20;;;;;;6246866;28;20498;-82
2021/09/11 05:06:35;;;;;;;9.48;6.57;;;20.90;60.20;;;;;;6228504;28;20040;-82
2021/09/11 05:09:36;;;;;;;13.18;5.88;;;20.90;60.30;;;;;;6250105;28;20045;-83
2021/09/11 05:12:37;;;;;;;11.95;5.80;;;20.90;60.10;;;;;;6260540;28;20033;-81
2021/09/11 05:15:38;;;;;;;14.07;6.63;;;20.90;59.90;;;;;;6263063;28;20029;-82
2021/09/11 05:18:39;;;;;;;8.23;5.28;;;20.90;59.80;;;;;;6257494;28;20034;-82
2021/09/11 05:21:40;;;;;;;9.07;5.35;;;20.90;59.70;;;;;;6251227;28;20339;-82
2021/09/11 05:24:42;;;;;;;8.85;6.05;;;20.90;59.60;;;;;;6231100;28;20468;-82
2021/09/11 05:27:43;;;;;;;11.80;5.95;;;20.90;59.50;;;;;;6244396;28;20022;-82
2021/09/11 05:30:44;;;;;;;13.02;5.82;;;20.90;59.40;;;;;;6247634;28;20400;-82
2021/09/11 05:33:45;;;;;;;8.38;4.70;;;20.90;59.30;;;;;;6246807;28;20092;-82
2021/09/11 05:36:48;;;;;;;11.43;5.00;;;20.90;59.80;;;;;;6247528;28;20042;-82
2021/09/11 05:39:48;;;;;;;7.50;4.95;;;21.00;59.10;;;;;;6240804;28;20045;-82
2021/09/11 05:42:49;;;;;;;6.95;5.00;;;20.90;59.00;;;;;;6234811;28;20064;-82
2021/09/11 05:45:51;;;;;;;10.45;5.82;;;20.10;58.70;;;;;;6252648;28;20344;-82
2021/09/11 05:48:51;;;;;;;9.52;5.70;;;20.90;59.00;;;;;;6251636;28;20076;-82
2021/09/11 05:51:53;;;;;;;11.63;6.68;;;20.90;59.00;;;;;;6248373;28;20041;-83
2021/09/11 05:54:54;;;;;;;10.48;5.65;;;20.90;59.00;;;;;;6258202;28;20045;-81
2021/09/11 05:57:55;;;;;;;12.75;5.90;;;21.00;58.90;;;;;;6252404;28;20052;-81
2021/09/11 06:00:57;;;;;;;19.35;6.53;;;21.00;58.90;;;;;;6252072;28;20459;-82
2021/09/11 06:03:57;;;;;;;8.55;5.43;;;21.00;58.80;;;;;;6251230;28;20056;-82
2021/09/11 06:06:58;;;;;;;9.93;6.32;;;21.00;58.80;;;;;;6251064;28;20030;-82
2021/09/11 06:10:00;;;;;;;10.18;6.07;;;21.00;58.80;;;;;;6261927;28;20482;-81
2021/09/11 06:13:01;;;;;;;12.77;5.78;;;21.00;58.80;;;;;;6255259;28;20037;-81
2021/09/11 06:16:04;;;;;;;12.10;6.18;;;21.00;58.80;;;;;;6253461;28;20036;-82
2021/09/11 06:19:05;;;;;;;9.65;6.13;;;21.00;58.80;;;;;;6252148;28;20025;-82
2021/09/11 06:22:09;;;;;;;10.20;6.40;;;21.10;58.80;;;;;;6249317;28;20092;-81
2021/09/11 06:25:11;;;;;;;9.32;6.05;;;21.10;58.80;;;;;;6250292;28;20430;-80
2021/09/11 06:28:12;;;;;;;8.85;6.13;;;21.10;58.80;;;;;;6249786;28;20021;-80
2021/09/11 06:31:13;;;;;;;10.05;5.93;;;21.10;58.80;;;;;;6252871;28;20069;-81
2021/09/11 06:34:14;;;;;;;10.35;6.55;;;21.20;58.80;;;;;;6230226;28;20041;-80
2021/09/11 06:37:15;;;;;;;10.18;6.22;;;21.20;58.70;;;;;;6231805;28;20034;-80
2021/09/11 06:40:16;;;;;;;10.98;6.70;;;21.30;58.50;;;;;;6250368;28;20045;-80
2021/09/11 06:43:17;;;;;;;11.30;6.68;;;21.40;58.40;;;;;;6248296;28;20053;-80
2021/09/11 06:46:19;;;;;;;11.45;6.68;;;21.50;58.20;;;;;;6226296;28;20044;-80
2021/09/11 06:49:21;;;;;;;14.57;7.35;;;21.50;58.10;;;;;;6234034;28;20033;-79
2021/09/11 06:52:22;;;;;;;10.77;6.40;;;21.50;58.00;;;;;;6230282;28;20038;-79
2021/09/11 06:55:23;;;;;;;11.57;6.78;;;21.50;58.00;;;;;;6232852;28;20109;-81
2021/09/11 06:58:24;;;;;;;11.40;6.55;;;21.60;57.90;;;;;;6250435;28;20029;-80
2021/09/11 07:01:25;;;;;;;10.32;6.53;;;21.60;57.90;;;;;;6248412;28;20033;-80
2021/09/11 07:04:26;;;;;;;12.98;6.10;;;21.70;57.90;;;;;;6230549;28;20045;-80
2021/09/11 07:07:26;;;;;;;11.32;6.60;;;21.70;57.80;;;;;;6245835;28;20492;-80
2021/09/11 07:10:27;;;;;;;11.77;6.95;;;21.80;57.80;;;;;;6245729;28;20110;-80
2021/09/11 07:13:28;;;;;;;10.25;6.32;;;21.80;57.70;;;;;;6248870;28;20044;-80
2021/09/11 07:16:29;;;;;;;10.05;6.10;;;21.90;57.60;;;;;;6247684;28;20071;-80
2021/09/11 07:19:30;;;;;;;13.30;6.72;;;22.00;57.50;;;;;;6231673;28;20029;-80
2021/09/11 07:22:31;;;;;;;11.00;6.03;;;22.00;57.30;;;;;;6248814;28;20477;-80
2021/09/11 07:25:32;;;;;;;12.15;6.80;;;22.10;57.80;;;;;;6247278;28;20088;-79
2021/09/11 07:28:35;;;;;;;12.57;6.20;;;22.20;57.10;;;;;;6248088;28;20442;-79
2021/09/11 07:31:36;;;;;;;9.57;5.75;;;22.20;56.80;;;;;;6228847;28;20052;-79
2021/09/11 07:34:37;;;;;;;12.02;6.10;;;22.20;56.70;;;;;;6246605;28;20390;-79
2021/09/11 07:37:37;;;;;;;19.92;6.43;;;22.30;56.60;;;;;;6246495;28;20041;-78
2021/09/11 07:40:38;;;;;;;11.90;6.18;;;22.30;56.40;;;;;;6230958;28;20037;-79
2021/09/11 07:43:39;;;;;;;12.73;6.43;;;22.30;56.10;;;;;;6247805;28;20049;-79
2021/09/11 07:46:40;;;;;;;8.73;5.63;;;22.30;56.10;;;;;;6247559;28;20041;-79
2021/09/11 07:49:41;;;;;;;11.55;6.05;;;22.40;55.90;;;;;;6247592;28;20037;-79
2021/09/11 07:52:42;;;;;;;11.45;6.18;;;22.50;55.80;;;;;;6230775;28;20111;-79
2021/09/11 07:55:43;;;;;;;12.65;6.43;;;22.50;55.80;;;;;;6245008;28;20071;-79
2021/09/11 07:58:44;;;;;;;10.30;6.25;;;22.60;55.60;;;;;;6255426;28;20037;-78
2021/09/11 08:01:45;;;;;;;11.38;6.05;;;22.70;55.40;;;;;;6229331;28;20037;-79
2021/09/11 08:04:46;;;;;;;13.90;5.90;;;22.90;55.30;;;;;;6239412;28;20125;-79
2021/09/11 08:07:49;;;;;;;9.43;6.25;;;23.00;55.10;;;;;;6208526;28;20034;-81
2021/09/11 08:10:50;;;;;;;9.30;6.32;;;23.10;54.80;;;;;;6225078;28;20483;-80
2021/09/11 08:13:53;;;;;;;10.13;6.55;;;23.30;54.50;;;;;;6222106;28;20443;-85
2021/09/11 08:16:54;;;;;;;10.73;6.70;;;23.40;54.20;;;;;;6221635;28;20064;-83
2021/09/11 08:19:55;;;;;;;9.98;6.60;;;23.50;54.00;;;;;;6219702;28;20057;-85
2021/09/11 08:22:57;;;;;;;8.20;6.00;;;23.50;53.70;;;;;;6226205;28;20041;-77
2021/09/11 08:25:58;;;;;;;11.73;6.28;;;23.60;53.70;;;;;;6225609;28;20045;-79
2021/09/11 08:28:59;;;;;;;10.18;5.80;;;23.70;53.50;;;;;;6246583;28;20033;-78
2021/09/11 08:32:00;;;;;;;8.90;6.13;;;23.80;53.40;;;;;;6229367;28;20060;-80
2021/09/11 08:35:01;;;;;;;11.63;6.30;;;23.90;53.10;;;;;;6228132;28;20037;-81
2021/09/11 08:38:02;;;;;;;10.70;6.25;;;24.00;52.90;;;;;;6242552;28;20045;-82
2021/09/11 08:41:06;;;;;;;13.75;6.75;;;24.10;52.70;;;;;;6249562;28;20047;-82
2021/09/11 08:44:07;;;;;;;15.73;6.88;;;24.20;52.60;;;;;;6227730;28;20118;-81
2021/09/11 08:47:08;;;;;;;11.65;6.30;;;24.30;52.30;;;;;;6241455;28;20033;-84
2021/09/11 08:50:11;;;;;;;9.70;5.50;;;24.50;52.10;;;;;;6228184;28;20041;-83
2021/09/11 08:53:12;;;;;;;9.80;6.05;;;24.60;51.90;;;;;;6244810;28;20038;-82
2021/09/11 08:56:14;;;;;;;10.10;6.03;;;24.70;51.50;;;;;;6250976;28;20056;-83
2021/09/11 08:59:17;;;;;;;10.70;6.22;;;24.80;51.50;;;;;;6231298;28;20048;-83
2021/09/11 09:02:21;;;;;;;9.35;6.15;;;24.90;51.10;;;;;;6202636;28;20053;-83
2021/09/11 09:05:26;;;;;;;12.30;6.60;;;25.00;50.80;;;;;;6223368;28;20137;-82
2021/09/11 09:08:28;;;;;;;9.98;6.00;;;25.10;50.70;;;;;;6239583;28;20095;-83
2021/09/11 09:11:31;;;;;;;15.82;7.20;;;25.20;50.60;;;;;;6231048;28;20037;-82
2021/09/11 09:14:32;;;;;;;15.68;7.45;;;25.20;50.40;;;;;;6247979;28;20132;-82
2021/09/11 09:17:40;;;;;;;8.77;5.68;;;25.30;50.50;;;;;;6253309;28;20474;-82
2021/09/11 09:20:42;;;;;;;9.50;6.13;;;25.40;50.20;;;;;;6251871;28;20029;-83
2021/09/11 09:23:54;;;;;;;11.25;7.07;;;25.50;50.00;;;;;;6238160;28;20040;-83
2021/09/11 09:27:03;;;;;;;10.50;6.22;;;25.60;49.80;;;;;;6246536;28;20033;-83
2021/09/11 09:30:05;;;;;;;13.60;6.03;;;25.50;50.10;;;;;;6251877;28;20044;-82
2021/09/11 09:33:07;;;;;;;8.55;5.13;;;25.60;49.40;;;;;;6251523;28;20045;-81
2021/09/11 09:36:08;;;;;;;8.68;5.78;;;25.70;49.40;;;;;;6268938;28;20035;-81
2021/09/11 09:39:11;;;;;;;9.85;5.72;;;25.70;49.40;;;;;;6269836;28;20089;-82
2021/09/11 09:42:14;;;;;;;8.73;5.32;;;25.80;49.40;;;;;;6258622;28;20355;-82
2021/09/11 09:45:28;;;;;;;8.38;5.40;;;25.90;49.30;;;;;;6257522;28;20033;-83
2021/09/11 09:48:29;;;;;;;8.02;5.05;;;26.10;49.00;;;;;;6234324;28;20030;-83
2021/09/11 09:51:33;;;;;;;10.52;5.32;;;26.20;48.90;;;;;;6258640;28;20053;-84
2021/09/11 09:54:34;;;;;;;12.10;5.95;;;27.10;49.20;;;;;;6234760;28;20033;-82
2021/09/11 09:57:41;;;;;;;12.50;5.90;;;26.20;48.60;;;;;;6249682;28;20041;-80
2021/09/11 10:00:41;;;;;;;12.35;4.90;;;26.20;48.60;;;;;;6250432;28;20158;-82
2021/09/11 10:03:42;;;;;;;9.07;5.05;;;26.30;48.60;;;;;;6252845;28;20371;-82
2021/09/11 10:06:47;;;;;;;6.63;4.75;;;26.30;48.70;;;;;;6258615;28;20037;-82
2021/09/11 10:14:13;;;;;;;7.88;5.00;;;26.40;48.60;;;;;;6251343;28;20037;-81
2021/09/11 10:17:30;;;;;;;6.60;4.78;;;26.40;48.70;;;;;;6250547;28;20120;-85
2021/09/11 10:21:13;;;;;;;14.60;5.15;;;26.40;48.70;;;;;;6255596;28;20034;-83
2021/09/11 10:24:24;;;;;;;8.18;4.63;;;26.50;48.80;;;;;;6113182;29;20059;-82
2021/09/11 10:27:33;;;;;;;7.28;4.40;;;26.70;48.50;;;;;;6127393;29;20051;-81
2021/09/11 10:31:02;;;;;;;8.73;4.40;;;26.80;48.40;;;;;;6127872;29;20195;-83
2021/09/11 10:34:04;;;;;;;7.65;4.72;;;26.90;48.20;;;;;;6125770;29;20053;-83
2021/09/11 10:37:05;;;;;;;6.35;4.75;;;27.10;47.70;;;;;;6126352;29;20107;-80
2021/09/11 10:40:41;;;;;;;8.90;5.03;;;27.40;47.30;;;;;;6114203;29;20028;-83
2021/09/11 10:44:01;;;;;;;10.02;5.32;;;27.80;46.90;;;;;;6042696;29;20113;-82
2021/09/11 10:47:02;;;;;;;6.90;4.90;;;28.20;46.20;;;;;;6069789;29;20033;-82
2021/09/11 10:50:14;;;;;;;9.82;4.40;;;28.40;45.50;;;;;;6061090;29;20138;-83
2021/09/11 10:53:24;;;;;;;8.25;4.80;;;28.60;44.90;;;;;;6070293;29;20052;-82
2021/09/11 10:56:35;;;;;;;7.82;4.78;;;28.90;44.70;;;;;;6076868;29;20455;-83
2021/09/11 10:59:41;;;;;;;9.07;4.82;;;29.20;44.50;;;;;;6120705;28;20480;-83
2021/09/11 11:02:45;;;;;;;7.00;4.85;;;29.50;44.10;;;;;;6153850;28;20043;-82
2021/09/11 11:06:06;;;;;;;7.10;4.72;;;29.70;43.70;;;;;;6119260;28;20902;-82
2021/09/11 11:09:08;;;;;;;11.55;5.15;;;29.90;42.90;;;;;;6170103;28;20456;-83
2021/09/11 11:12:13;;;;;;;5.63;4.65;;;30.10;42.60;;;;;;6151418;28;20046;-82
2021/09/11 11:15:22;;;;;;;6.93;4.47;;;30.30;42.50;;;;;;6149044;28;20076;-81
2021/09/11 11:18:28;;;;;;;6.10;4.40;;;30.50;42.00;;;;;;6161132;28;20545;-81
2021/09/11 11:21:28;;;;;;;9.90;4.40;;;30.70;41.70;;;;;;6247403;28;20045;-80
2021/09/11 11:24:32;;;;;;;9.00;4.68;;;30.90;41.40;;;;;;6248295;28;20041;-81
2021/09/11 11:27:34;;;;;;;7.65;4.68;;;31.10;40.70;;;;;;6239838;28;20026;-80
2021/09/11 11:30:36;;;;;;;8.52;4.90;;;31.20;40.30;;;;;;6252094;28;20112;-80
2021/09/11 11:33:45;;;;;;;9.32;4.70;;;31.10;40.20;;;;;;6241542;28;20072;-82
2021/09/11 11:36:56;;;;;;;10.77;4.85;;;31.20;39.90;;;;;;6236525;28;20064;-81
2021/09/11 11:40:03;;;;;;;8.90;4.68;;;31.30;39.70;;;;;;6241039;28;20029;-82
2021/09/11 11:43:06;;;;;;;5.80;4.03;;;31.50;39.40;;;;;;6243488;28;20108;-81
2021/09/11 11:46:07;;;;;;;7.25;4.20;;;32.00;38.90;;;;;;6245627;28;20025;-82
2021/09/11 11:49:09;;;;;;;9.68;4.43;;;32.10;38.30;;;;;;6249487;28;20033;-80
2021/09/11 11:52:13;;;;;;;5.28;3.80;;;32.40;37.50;;;;;;6253087;28;20084;-81
2021/09/11 11:55:14;;;;;;;5.18;4.03;;;32.70;37.00;;;;;;6253729;28;20068;-80
2021/09/11 11:58:19;;;;;;;7.30;4.30;;;32.90;36.30;;;;;;6253071;28;20041;-81
2021/09/11 12:01:29;;;;;;;5.38;4.03;;;33.20;35.60;;;;;;6247139;28;20421;-82
2021/09/11 12:04:30;;;;;;;7.85;4.70;;;33.40;35.40;;;;;;6231813;28;20044;-83
2021/09/11 12:07:32;;;;;;;6.28;4.35;;;33.70;34.70;;;;;;6247217;28;20038;-84
2021/09/11 12:10:33;;;;;;;12.05;4.43;;;34.10;33.80;;;;;;6246073;28;20425;-82
2021/09/11 12:13:35;;;;;;;5.40;4.30;;;34.50;32.90;;;;;;6246742;28;20091;-85
2021/09/11 12:16:38;;;;;;;5.75;3.67;;;34.90;32.50;;;;;;6245693;28;20754;-83
2021/09/11 12:19:39;;;;;;;5.47;4.10;;;35.50;31.70;;;;;;6244202;28;20030;-85
2021/09/11 12:22:40;;;;;;;7.25;4.18;;;35.90;31.00;;;;;;6241821;28;20071;-80
2021/09/11 12:25:52;;;;;;;5.82;4.07;;;36.50;29.80;;;;;;6245780;28;20033;-79
2021/09/11 12:29:09;;;;;;;5.38;4.22;;;36.80;29.30;;;;;;6245466;28;20044;-80
2021/09/11 12:32:17;;;;;;;6.53;3.92;;;37.00;29.20;;;;;;6218868;28;20045;-80
2021/09/11 12:35:28;;;;;;;4.20;3.53;;;37.40;28.90;;;;;;6228679;28;20489;-80
2021/09/11 12:38:41;;;;;;;5.60;3.40;;;37.80;28.40;;;;;;6225819;28;20041;-83
2021/09/11 12:41:49;;;;;;;6.60;3.70;;;38.30;28.00;;;;;;6239407;28;20048;-82
2021/09/11 12:44:50;;;;;;;3.78;3.22;;;38.80;27.40;;;;;;6242183;28;20386;-82
2021/09/11 12:47:51;;;;;;;5.18;3.60;;;39.20;27.00;;;;;;6241749;28;20092;-83
2021/09/11 12:51:21;;;;;;;4.60;3.40;;;39.70;26.70;;;;;;6216356;28;20402;-82
2021/09/11 12:54:23;;;;;;;4.53;3.25;;;39.90;26.00;;;;;;6240358;28;20057;-83
2021/09/11 12:57:25;;;;;;;4.80;3.67;;;39.80;25.80;;;;;;6251511;28;20120;-82
2021/09/11 13:00:26;;;;;;;3.22;2.70;;;39.70;25.80;;;;;;6226692;28;20442;-81
2021/09/11 13:03:27;;;;;;;3.35;2.88;;;39.80;26.00;;;;;;6243188;28;20040;-81
2021/09/11 13:06:28;;;;;;;3.08;2.78;;;39.80;25.70;;;;;;6242046;28;20057;-81
2021/09/11 13:09:29;;;;;;;3.63;2.50;;;39.70;25.60;;;;;;6241932;28;20462;-81
2021/09/11 13:12:30;;;;;;;3.00;2.28;;;39.90;25.10;;;;;;6227419;28;20069;-81
2021/09/11 13:15:31;;;;;;;3.63;2.53;;;40.10;24.80;;;;;;6235112;28;20058;-80
2021/09/11 13:18:32;;;;;;;4.50;3.08;;;40.10;24.50;;;;;;6244755;28;20034;-80
2021/09/11 13:21:35;;;;;;;4.72;2.70;;;40.00;24.50;;;;;;6223891;28;20064;-81
2021/09/11 13:24:35;;;;;;;3.90;2.40;;;40.00;24.50;;;;;;6242023;28;20095;-81
2021/09/11 13:27:37;;;;;;;4.38;2.60;;;40.10;24.60;;;;;;6244835;28;20096;-81
2021/09/11 13:30:39;;;;;;;2.78;2.40;;;40.20;24.40;;;;;;6244350;28;20129;-82
2021/09/11 13:33:42;;;;;;;3.65;2.50;;;40.30;24.30;;;;;;6233235;28;20041;-84
2021/09/11 13:36:43;;;;;;;6.13;2.35;;;40.30;24.20;;;;;;6243198;28;20446;-81
2021/09/11 13:39:44;;;;;;;2.45;2.08;;;40.20;24.20;;;;;;6247266;28;20037;-82
2021/09/11 13:42:45;;;;;;;2.28;2.00;;;39.50;24.50;;;;;;6239699;28;20109;-82
2021/09/11 13:45:46;;;;;;;2.88;1.85;;;38.40;25.60;;;;;;6247989;28;20236;-82
2021/09/11 13:48:47;;;;;;;2.20;1.90;;;37.10;26.70;;;;;;6225922;28;20195;-81
2021/09/11 13:51:48;;;;;;;2.95;2.00;;;36.00;27.90;;;;;;6243878;28;20044;-80
2021/09/11 13:54:50;;;;;;;5.63;1.95;;;35.00;29.00;;;;;;6243783;28;20042;-81
2021/09/11 13:57:50;;;;;;;3.55;1.92;;;34.20;30.00;;;;;;6247173;28;20049;-81
2021/09/11 14:00:51;;;;;;;4.35;2.30;;;33.50;30.80;;;;;;6256331;28;20048;-81
2021/09/11 14:03:52;;;;;;;4.65;1.95;;;32.90;31.50;;;;;;6252313;28;20041;-80
2021/09/11 14:06:53;;;;;;;2.50;1.80;;;32.50;32.40;;;;;;6252235;28;20447;-82
2021/09/11 14:09:55;;;;;;;2.63;2.10;;;32.00;33.10;;;;;;6238731;28;20120;-81
2021/09/11 14:12:56;;;;;;;4.00;1.90;;;31.70;33.90;;;;;;6251374;28;20037;-81
2021/09/11 14:15:57;;;;;;;3.40;2.00;;;31.40;34.30;;;;;;6250809;28;20439;-82
2021/09/11 14:18:59;;;;;;;3.00;1.73;;;31.10;34.80;;;;;;6249867;28;20057;-81
2021/09/11 14:22:00;;;;;;;1.75;1.35;;;31.00;35.20;;;;;;6249078;28;20147;-84
2021/09/11 14:25:01;;;;;;;2.03;1.50;;;30.80;35.40;;;;;;6242704;28;20033;-82
2021/09/11 14:28:03;;;;;;;1.92;1.58;;;30.60;35.80;;;;;;6219498;28;20367;-81
2021/09/11 14:31:05;;;;;;;2.25;1.58;;;30.50;36.00;;;;;;6246302;28;20049;-81
2021/09/11 14:34:06;;;;;;;4.25;1.48;;;30.40;36.10;;;;;;6239397;28;20347;-82
2021/09/11 14:37:08;;;;;;;2.30;1.42;;;30.30;36.40;;;;;;6243613;28;20132;-81
2021/09/11 14:40:11;;;;;;;3.45;1.77;;;30.10;36.80;;;;;;6246834;28;20352;-82
2021/09/11 14:43:12;;;;;;;2.63;1.55;;;30.00;37.00;;;;;;6246724;28;20407;-81
2021/09/11 14:46:13;;;;;;;6.03;2.03;;;29.90;37.10;;;;;;6247456;28;20041;-78
2021/09/11 14:49:16;;;;;;;2.25;1.38;;;29.90;37.30;;;;;;6243870;28;20347;-80
2021/09/11 14:52:17;;;;;;;3.10;1.40;;;29.90;37.50;;;;;;6243454;28;20046;-80
2021/09/11 14:55:18;;;;;;;2.38;1.60;;;29.90;37.60;;;;;;6247646;28;20049;-79
2021/09/11 14:58:19;;;;;;;1.35;1.20;;;29.80;37.60;;;;;;6225645;28;20033;-80
2021/09/11 15:01:20;;;;;;;2.38;1.30;;;29.70;37.70;;;;;;6246522;28;20033;-79
2021/09/11 15:04:21;;;;;;;3.28;1.55;;;29.70;37.90;;;;;;6225417;28;20042;-79
2021/09/11 15:07:23;;;;;;;2.72;1.27;;;29.70;38.60;;;;;;6230837;28;20048;-79
2021/09/11 15:10:24;;;;;;;1.63;1.17;;;29.70;38.00;;;;;;6228577;28;20506;-79
2021/09/11 15:13:25;;;;;;;1.95;1.40;;;29.70;38.00;;;;;;6246233;28;20041;-79
2021/09/11 15:16:26;;;;;;;4.47;1.60;;;29.60;38.00;;;;;;6246909;28;20120;-79
2021/09/11 15:19:27;;;;;;;1.33;1.08;;;29.70;38.00;;;;;;6247461;28;20385;-79
2021/09/11 15:22:28;;;;;;;1.23;1.10;;;29.70;38.00;;;;;;6229795;28;20044;-78
2021/09/11 15:25:29;;;;;;;3.00;1.25;;;29.70;38.00;;;;;;6247344;28;20367;-79
2021/09/11 15:28:30;;;;;;;4.70;1.55;;;29.70;37.90;;;;;;6246954;28;20089;-81
2021/09/11 15:31:31;;;;;;;4.40;1.40;;;29.70;38.00;;;;;;6245886;28;20098;-79
2021/09/11 15:34:32;;;;;;;2.78;1.70;;;29.70;37.90;;;;;;6219409;28;20034;-78
2021/09/11 15:37:33;;;;;;;2.72;1.50;;;29.70;37.70;;;;;;6244891;28;20430;-79
2021/09/11 15:40:34;;;;;;;1.20;1.10;;;29.70;37.70;;;;;;6245615;28;20116;-79
2021/09/11 15:43:34;;;;;;;1.23;1.13;;;29.70;37.70;;;;;;6215961;28;20105;-78
2021/09/11 15:46:35;;;;;;;3.47;1.63;;;29.70;37.60;;;;;;6235498;28;20045;-78
2021/09/11 15:49:36;;;;;;;1.55;1.20;;;29.70;37.60;;;;;;6245806;28;20366;-79